sensor_id;sensor_type;location;lat;lon;timestamp;pressure;altitude;pressure_sealevel;temperature;humidity
61674;BME280;47573;43.832;5.974;2023-05-17T00:01:35;94421.88;;;25.08;58.47
61674;BME280;47573;43.832;5.974;2023-05-17T00:08:15;94419.44;;;25.07;58.21
61674;BME280;47573;43.832;5.974;2023-05-17T00:14:57;94413.13;;;25.06;58.40
61674;BME280;47573;43.832;5.974;2023-05-17T00:21:38;94410.44;;;25.01;58.46
61674;BME280;47573;43.832;5.974;2023-05-17T00:28:18;94405.50;;;24.98;58.40
61674;BME280;47573;43.832;5.974;2023-05-17T00:35:00;94397.06;;;24.95;58.73
61674;BME280;47573;43.832;5.974;2023-05-17T00:41:41;94404.44;;;24.94;58.40
61674;BME280;47573;43.832;5.974;2023-05-17T00:48:22;94396.25;;;24.89;58.63
61674;BME280;47573;43.832;5.974;2023-05-17T00:55:05;94396.81;;;24.86;58.40
61674;BME280;47573;43.832;5.974;2023-05-17T01:01:46;94391.34;;;24.86;58.59
61674;BME280;47573;43.832;5.974;2023-05-17T01:08:28;94392.47;;;24.80;59.17
61674;BME280;47573;43.832;5.974;2023-05-17T01:15:13;94387.81;;;24.81;59.01
61674;BME280;47573;43.832;5.974;2023-05-17T01:22:02;94402.28;;;24.81;58.79
61674;BME280;47573;43.832;5.974;2023-05-17T01:28:52;94400.66;;;24.75;59.19
61674;BME280;47573;43.832;5.974;2023-05-17T01:35:34;94401.44;;;24.70;58.96
61674;BME280;47573;43.832;5.974;2023-05-17T01:42:20;94410.44;;;24.71;59.13
61674;BME280;47573;43.832;5.974;2023-05-17T01:49:20;94408.28;;;24.73;59.09
61674;BME280;47573;43.832;5.974;2023-05-17T01:56:04;94401.19;;;24.72;59.16
61674;BME280;47573;43.832;5.974;2023-05-17T02:02:46;94397.63;;;24.66;58.97
61674;BME280;47573;43.832;5.974;2023-05-17T02:09:28;94394.63;;;24.63;59.41
61674;BME280;47573;43.832;5.974;2023-05-17T02:16:09;94389.72;;;24.65;59.34
61674;BME280;47573;43.832;5.974;2023-05-17T02:22:49;94404.72;;;24.62;59.12
61674;BME280;47573;43.832;5.974;2023-05-17T02:29:31;94397.38;;;24.63;59.14
61674;BME280;47573;43.832;5.974;2023-05-17T02:36:12;94387.56;;;24.57;59.14
61674;BME280;47573;43.832;5.974;2023-05-17T02:42:52;94399.56;;;24.56;59.50
61674;BME280;47573;43.832;5.974;2023-05-17T02:49:34;94392.47;;;24.55;59.07
61674;BME280;47573;43.832;5.974;2023-05-17T02:56:14;94400.38;;;24.46;59.67
61674;BME280;47573;43.832;5.974;2023-05-17T03:18:44;94390.84;;;24.44;58.81
61674;BME280;47573;43.832;5.974;2023-05-17T03:25:24;94396.31;;;24.39;58.76
61674;BME280;47573;43.832;5.974;2023-05-17T03:32:05;94391.66;;;24.39;58.85
61674;BME280;47573;43.832;5.974;2023-05-17T03:38:49;94389.78;;;24.35;59.30
61674;BME280;47573;43.832;5.974;2023-05-17T03:45:30;94395.22;;;24.35;59.11
61674;BME280;47573;43.832;5.974;2023-05-17T03:52:10;94400.69;;;24.35;58.98
61674;BME280;47573;43.832;5.974;2023-05-17T03:58:52;94392.50;;;24.30;59.22
61674;BME280;47573;43.832;5.974;2023-05-17T04:05:33;94400.69;;;24.35;59.36
61674;BME280;47573;43.832;5.974;2023-05-17T04:12:13;94409.69;;;24.40;59.00
61674;BME280;47573;43.832;5.974;2023-05-17T04:18:55;94413.50;;;24.29;59.40
61674;BME280;47573;43.832;5.974;2023-05-17T04:25:35;94416.78;;;24.26;59.39
61674;BME280;47573;43.832;5.974;2023-05-17T04:32:16;94424.13;;;24.26;59.27
61674;BME280;47573;43.832;5.974;2023-05-17T04:38:58;94431.22;;;24.27;59.39
61674;BME280;47573;43.832;5.974;2023-05-17T04:45:38;94433.94;;;24.42;58.92
61674;BME280;47573;43.832;5.974;2023-05-17T04:52:19;94445.69;;;24.42;59.15
61674;BME280;47573;43.832;5.974;2023-05-17T04:59:01;94448.13;;;24.44;59.29
61674;BME280;47573;43.832;5.974;2023-05-17T05:05:41;94445.94;;;24.46;59.33
61674;BME280;47573;43.832;5.974;2023-05-17T05:12:23;94453.34;;;24.40;59.45
61674;BME280;47573;43.832;5.974;2023-05-17T05:19:05;94460.41;;;24.41;59.65
61674;BME280;47573;43.832;5.974;2023-05-17T05:25:45;94461.25;;;24.42;59.58
61674;BME280;47573;43.832;5.974;2023-05-17T05:32:25;94459.34;;;24.47;59.25
61674;BME280;47573;43.832;5.974;2023-05-17T05:39:07;94462.88;;;24.48;59.33
61674;BME280;47573;43.832;5.974;2023-05-17T05:45:48;94459.06;;;24.44;59.46
61674;BME280;47573;43.832;5.974;2023-05-17T05:52:29;94467.25;;;24.39;59.75
61674;BME280;47573;43.832;5.974;2023-05-17T05:59:10;94474.88;;;24.42;59.50
61674;BME280;47573;43.832;5.974;2023-05-17T06:05:51;94474.34;;;24.40;59.97
61674;BME280;47573;43.832;5.974;2023-05-17T06:12:31;94488.53;;;24.42;59.71
61674;BME280;47573;43.832;5.974;2023-05-17T06:19:13;94497.81;;;24.46;59.35
61674;BME280;47573;43.832;5.974;2023-05-17T06:25:54;94502.16;;;24.42;59.64
61674;BME280;47573;43.832;5.974;2023-05-17T06:32:34;94509.25;;;24.38;60.16
61674;BME280;47573;43.832;5.974;2023-05-17T06:39:16;94501.09;;;24.33;60.22
61674;BME280;47573;43.832;5.974;2023-05-17T06:45:57;94502.72;;;24.34;59.80
61674;BME280;47573;43.832;5.974;2023-05-17T06:52:37;94511.19;;;24.47;59.60
61674;BME280;47573;43.832;5.974;2023-05-17T06:59:19;94507.09;;;24.50;59.67
61674;BME280;47573;43.832;5.974;2023-05-17T07:06:00;94520.72;;;24.60;58.85
61674;BME280;47573;43.832;5.974;2023-05-17T07:12:40;94521.84;;;24.59;59.27
61674;BME280;47573;43.832;5.974;2023-05-17T07:19:22;94530.59;;;24.66;58.72
61674;BME280;47573;43.832;5.974;2023-05-17T07:26:03;94533.59;;;24.74;58.26
61674;BME280;47573;43.832;5.974;2023-05-17T07:32:43;94541.00;;;24.74;58.43
61674;BME280;47573;43.832;5.974;2023-05-17T07:39:25;94541.50;;;24.71;58.50
61674;BME280;47573;43.832;5.974;2023-05-17T07:46:06;94549.97;;;24.69;58.80
61674;BME280;47573;43.832;5.974;2023-05-17T07:52:46;94553.50;;;24.70;58.44
61674;BME280;47573;43.832;5.974;2023-05-17T07:59:28;94567.69;;;24.67;58.76
61674;BME280;47573;43.832;5.974;2023-05-17T08:06:09;94566.59;;;24.73;58.75
61674;BME280;47573;43.832;5.974;2023-05-17T08:12:49;94572.63;;;24.70;59.23
61674;BME280;47573;43.832;5.974;2023-05-17T08:19:31;94582.16;;;24.72;59.65
61674;BME280;47573;43.832;5.974;2023-05-17T08:26:12;94583.03;;;24.83;59.13
61674;BME280;47573;43.832;5.974;2023-05-17T08:32:52;94581.94;;;24.89;59.79
61674;BME280;47573;43.832;5.974;2023-05-17T08:39:34;94581.94;;;24.74;62.27
61674;BME280;47573;43.832;5.974;2023-05-17T08:46:15;94585.19;;;24.81;62.69
61674;BME280;47573;43.832;5.974;2023-05-17T08:52:57;94595.03;;;24.87;62.36
61674;BME280;47573;43.832;5.974;2023-05-17T08:59:39;94596.69;;;24.88;62.34
61674;BME280;47573;43.832;5.974;2023-05-17T09:06:21;94617.72;;;24.88;62.20
61674;BME280;47573;43.832;5.974;2023-05-17T09:13:01;94614.69;;;24.89;62.08
61674;BME280;47573;43.832;5.974;2023-05-17T09:19:44;94605.41;;;24.95;61.25
61674;BME280;47573;43.832;5.974;2023-05-17T09:26:25;94617.44;;;25.04;60.74
61674;BME280;47573;43.832;5.974;2023-05-17T09:33:06;94620.72;;;25.16;60.18
61674;BME280;47573;43.832;5.974;2023-05-17T09:39:48;94634.41;;;25.21;59.87
61674;BME280;47573;43.832;5.974;2023-05-17T09:46:32;94637.94;;;25.27;59.67
61674;BME280;47573;43.832;5.974;2023-05-17T09:53:21;94639.84;;;25.31;59.49
61674;BME280;47573;43.832;5.974;2023-05-17T10:00:05;94630.56;;;25.37;59.34
61674;BME280;47573;43.832;5.974;2023-05-17T10:06:45;94639.34;;;25.44;58.93
61674;BME280;47573;43.832;5.974;2023-05-17T10:13:30;94636.06;;;25.42;59.17
61674;BME280;47573;43.832;5.974;2023-05-17T10:20:14;94645.88;;;25.48;58.90
61674;BME280;47573;43.832;5.974;2023-05-17T10:26:55;94648.91;;;25.47;59.07
61674;BME280;47573;43.832;5.974;2023-05-17T10:33:37;94651.34;;;25.48;59.33
61674;BME280;47573;43.832;5.974;2023-05-17T10:40:19;94645.03;;;25.58;58.71
61674;BME280;47573;43.832;5.974;2023-05-17T10:47:00;94647.50;;;25.60;58.69
61674;BME280;47573;43.832;5.974;2023-05-17T10:54:08;94641.22;;;25.59;58.89
61674;BME280;47573;43.832;5.974;2023-05-17T11:00:51;94645.34;;;25.62;59.01
61674;BME280;47573;43.832;5.974;2023-05-17T11:21:47;94628.94;;;25.62;58.91
61674;BME280;47573;43.832;5.974;2023-05-17T11:28:31;94634.94;;;25.59;59.02
61674;BME280;47573;43.832;5.974;2023-05-17T11:54:02;94621.81;;;25.66;58.86
61674;BME280;47573;43.832;5.974;2023-05-17T12:00:43;94622.91;;;25.65;58.78
61674;BME280;47573;43.832;5.974;2023-05-17T12:07:24;94636.81;;;25.68;58.58
61674;BME280;47573;43.832;5.974;2023-05-17T12:14:06;94630.56;;;25.63;58.54
61674;BME280;47573;43.832;5.974;2023-05-17T12:20:54;94631.66;;;25.67;58.90
61674;BME280;47573;43.832;5.974;2023-05-17T12:27:34;94642.84;;;25.60;59.27
61674;BME280;47573;43.832;5.974;2023-05-17T12:34:16;94636.56;;;25.65;58.84
61674;BME280;47573;43.832;5.974;2023-05-17T12:40:59;94634.94;;;25.59;59.27
61674;BME280;47573;43.832;5.974;2023-05-17T12:47:39;94642.03;;;25.65;58.86
61674;BME280;47573;43.832;5.974;2023-05-17T12:54:27;94639.31;;;25.65;58.74
61674;BME280;47573;43.832;5.974;2023-05-17T13:01:08;94638.78;;;25.47;59.88
61674;BME280;47573;43.832;5.974;2023-05-17T13:07:49;94636.03;;;25.52;60.01
61674;BME280;47573;43.832;5.974;2023-05-17T13:14:35;94651.59;;;25.62;59.40
61674;BME280;47573;43.832;5.974;2023-05-17T13:21:17;94667.75;;;25.64;59.42
61674;BME280;47573;43.832;5.974;2023-05-17T13:27:57;94678.13;;;25.57;59.65
61674;BME280;47573;43.832;5.974;2023-05-17T13:34:39;94728.41;;;25.56;59.94
61674;BME280;47573;43.832;5.974;2023-05-17T13:41:20;94792.41;;;25.65;59.97
61674;BME280;47573;43.832;5.974;2023-05-17T13:48:00;94799.53;;;25.66;60.29
61674;BME280;47573;43.832;5.974;2023-05-17T13:54:42;94806.88;;;25.50;60.10
61674;BME280;47573;43.832;5.974;2023-05-17T14:01:23;94800.59;;;25.49;58.71
61674;BME280;47573;43.832;5.974;2023-05-17T14:08:04;94825.75;;;25.51;59.28
61674;BME280;47573;43.832;5.974;2023-05-17T14:14:46;94825.47;;;25.48;58.22
61674;BME280;47573;43.832;5.974;2023-05-17T14:21:26;94843.78;;;25.47;58.58
61674;BME280;47573;43.832;5.974;2023-05-17T14:28:07;94849.78;;;25.49;58.35
61674;BME280;47573;43.832;5.974;2023-05-17T14:34:48;94854.97;;;25.46;58.49
61674;BME280;47573;43.832;5.974;2023-05-17T14:41:29;94865.91;;;25.46;59.17
61674;BME280;47573;43.832;5.974;2023-05-17T14:48:09;94885.84;;;25.41;58.84
61674;BME280;47573;43.832;5.974;2023-05-17T14:54:51;94873.78;;;25.37;59.08
61674;BME280;47573;43.832;5.974;2023-05-17T15:01:32;94861.22;;;25.36;59.03
61674;BME280;47573;43.832;5.974;2023-05-17T15:08:12;94872.22;;;25.51;59.82
61674;BME280;47573;43.832;5.974;2023-05-17T15:26:52;94900.16;;;25.74;61.41
61674;BME280;47573;43.832;5.974;2023-05-17T15:33:33;94903.47;;;25.86;61.39
61674;BME280;47573;43.832;5.974;2023-05-17T15:40:13;94903.22;;;25.92;61.89
61674;BME280;47573;43.832;5.974;2023-05-17T15:46:55;94907.59;;;25.98;62.10
61674;BME280;47573;43.832;5.974;2023-05-17T15:53:36;94912.22;;;25.98;62.23
61674;BME280;47573;43.832;5.974;2023-05-17T16:00:17;94922.66;;;26.01;62.09
61674;BME280;47573;43.832;5.974;2023-05-17T16:06:59;94918.81;;;26.02;62.54
61674;BME280;47573;43.832;5.974;2023-05-17T16:13:40;94924.81;;;26.04;62.47
61674;BME280;47573;43.832;5.974;2023-05-17T16:20:20;94935.81;;;26.09;62.72
61674;BME280;47573;43.832;5.974;2023-05-17T16:27:03;94929.53;;;26.08;62.72
61674;BME280;47573;43.832;5.974;2023-05-17T16:33:43;94935.00;;;26.13;62.70
61674;BME280;47573;43.832;5.974;2023-05-17T16:40:23;94942.38;;;26.13;62.91
61674;BME280;47573;43.832;5.974;2023-05-17T16:47:05;94935.81;;;26.19;62.87
61674;BME280;47573;43.832;5.974;2023-05-17T16:53:46;94940.19;;;26.20;63.02
61674;BME280;47573;43.832;5.974;2023-05-17T17:00:27;94945.66;;;26.20;63.08
61674;BME280;47573;43.832;5.974;2023-05-17T17:07:09;94935.25;;;26.22;63.26
61674;BME280;47573;43.832;5.974;2023-05-17T17:13:49;94944.03;;;26.29;62.94
61674;BME280;47573;43.832;5.974;2023-05-17T17:20:30;94942.69;;;26.32;63.25
61674;BME280;47573;43.832;5.974;2023-05-17T17:27:12;94945.16;;;26.38;63.21
61674;BME280;47573;43.832;5.974;2023-05-17T17:33:52;94945.41;;;26.42;63.21
61674;BME280;47573;43.832;5.974;2023-05-17T17:40:33;94953.34;;;26.43;63.42
61674;BME280;47573;43.832;5.974;2023-05-17T17:47:14;94956.63;;;26.45;63.16
61674;BME280;47573;43.832;5.974;2023-05-17T17:53:55;94960.47;;;26.44;63.56
61674;BME280;47573;43.832;5.974;2023-05-17T18:00:35;94955.00;;;26.44;63.69
61674;BME280;47573;43.832;5.974;2023-05-17T18:07:17;94963.75;;;26.46;64.00
61674;BME280;47573;43.832;5.974;2023-05-17T18:13:58;94959.91;;;26.47;64.03
61674;BME280;47573;43.832;5.974;2023-05-17T18:20:38;94967.06;;;26.48;64.29
61674;BME280;47573;43.832;5.974;2023-05-17T18:27:20;94969.22;;;26.51;64.28
61674;BME280;47573;43.832;5.974;2023-05-17T18:34:01;94975.81;;;26.50;64.34
61674;BME280;47573;43.832;5.974;2023-05-17T18:40:41;94979.38;;;26.51;64.31
61674;BME280;47573;43.832;5.974;2023-05-17T18:47:23;94981.81;;;26.47;64.65
61674;BME280;47573;43.832;5.974;2023-05-17T18:54:04;94980.75;;;26.48;64.85
61674;BME280;47573;43.832;5.974;2023-05-17T19:00:45;94984.59;;;26.57;64.22
61674;BME280;47573;43.832;5.974;2023-05-17T19:07:26;94988.97;;;26.63;64.32
61674;BME280;47573;43.832;5.974;2023-05-17T19:14:07;94991.16;;;26.61;64.84
61674;BME280;47573;43.832;5.974;2023-05-17T19:20:47;95003.19;;;26.60;65.19
61674;BME280;47573;43.832;5.974;2023-05-17T19:27:29;95006.47;;;26.62;65.50
61674;BME280;47573;43.832;5.974;2023-05-17T19:34:10;95011.97;;;26.62;65.93
61674;BME280;47573;43.832;5.974;2023-05-17T19:40:50;95023.47;;;26.59;66.38
61674;BME280;47573;43.832;5.974;2023-05-17T19:47:32;95019.06;;;26.58;66.65
61674;BME280;47573;43.832;5.974;2023-05-17T19:54:13;95027.84;;;26.60;66.62
61674;BME280;47573;43.832;5.974;2023-05-17T20:00:54;95043.19;;;26.61;66.63
61674;BME280;47573;43.832;5.974;2023-05-17T20:07:36;95034.97;;;26.56;67.04
61674;BME280;47573;43.832;5.974;2023-05-17T20:14:16;95044.00;;;26.62;66.80
61674;BME280;47573;43.832;5.974;2023-05-17T20:20:57;95055.50;;;26.59;66.95
61674;BME280;47573;43.832;5.974;2023-05-17T20:27:38;95051.41;;;26.66;66.58
61674;BME280;47573;43.832;5.974;2023-05-17T20:34:19;95051.41;;;26.66;66.47
61674;BME280;47573;43.832;5.974;2023-05-17T20:41:00;95055.25;;;26.65;66.74
61674;BME280;47573;43.832;5.974;2023-05-17T20:47:41;95056.03;;;26.66;66.71
61674;BME280;47573;43.832;5.974;2023-05-17T20:54:22;95057.44;;;26.63;66.87
61674;BME280;47573;43.832;5.974;2023-05-17T21:01:02;95059.63;;;26.61;66.47
61674;BME280;47573;43.832;5.974;2023-05-17T21:07:44;95066.72;;;26.62;66.78
61674;BME280;47573;43.832;5.974;2023-05-17T21:14:25;95056.88;;;26.61;66.80
61674;BME280;47573;43.832;5.974;2023-05-17T21:21:05;95064.28;;;26.61;66.67
61674;BME280;47573;43.832;5.974;2023-05-17T21:27:48;95060.69;;;26.55;66.91
61674;BME280;47573;43.832;5.974;2023-05-17T21:34:29;95067.28;;;26.59;66.59
61674;BME280;47573;43.832;5.974;2023-05-17T21:41:09;95069.47;;;26.62;66.70
61674;BME280;47573;43.832;5.974;2023-05-17T21:47:51;95067.28;;;26.59;66.65
61674;BME280;47573;43.832;5.974;2023-05-17T21:54:32;95068.38;;;26.58;66.67
61674;BME280;47573;43.832;5.974;2023-05-17T22:01:13;95069.47;;;26.62;66.69
61674;BME280;47573;43.832;5.974;2023-05-17T22:07:54;95056.34;;;26.59;66.68
61674;BME280;47573;43.832;5.974;2023-05-17T22:14:35;95056.88;;;26.56;66.71
61674;BME280;47573;43.832;5.974;2023-05-17T22:21:16;95055.78;;;26.57;66.51
61674;BME280;47573;43.832;5.974;2023-05-17T22:27:57;95060.97;;;26.54;66.79
61674;BME280;47573;43.832;5.974;2023-05-17T22:34:39;95067.28;;;26.59;66.46
61674;BME280;47573;43.832;5.974;2023-05-17T22:41:19;95065.63;;;26.58;66.56
61674;BME280;47573;43.832;5.974;2023-05-17T22:48:01;95064.53;;;26.54;66.89
61674;BME280;47573;43.832;5.974;2023-05-17T22:54:42;95068.09;;;26.55;66.59
61674;BME280;47573;43.832;5.974;2023-05-17T23:01:22;95063.44;;;26.50;66.69
61674;BME280;47573;43.832;5.974;2023-05-17T23:08:04;95068.91;;;26.50;66.56
61674;BME280;47573;43.832;5.974;2023-05-17T23:14:45;95063.91;;;26.27;64.05
61674;BME280;47573;43.832;5.974;2023-05-17T23:21:25;95068.88;;;26.40;65.32
61674;BME280;47573;43.832;5.974;2023-05-17T23:28:07;95052.97;;;26.27;65.55
61674;BME280;47573;43.832;5.974;2023-05-17T23:34:48;95053.22;;;26.20;65.54
61674;BME280;47573;43.832;5.974;2023-05-17T23:41:29;95039.81;;;26.09;65.85
61674;BME280;47573;43.832;5.974;2023-05-17T23:48:11;95042.47;;;26.04;65.62
61674;BME280;47573;43.832;5.974;2023-05-17T23:54:51;95039.75;;;25.99;65.65
